Time;durP1;ratioP1;P1;durP2;ratioP2;P2;SDS_P1;SDS_P2;PMS_P1;PMS_P2;Temp;Humidity;BMP_temperature;BMP_pressure;BME280_temperature;BME280_humidity;BME280_pressure;Samples;Min_cycle;Max_cycle;Signal;HPM_P1;HPM_P2
2021/09/05 00:01:32;;;;;;;;;;;;;;;10.16;70.46;100732.53;1708622;83;21044;-72
2021/09/05 00:04:01;;;;;;;5.43;2.70;;;;;;;10.09;70.57;100731.56;1704930;82;20579;-71
2021/09/05 00:06:25;;;;;;;3.50;3.20;;;;;;;9.98;70.83;100735.95;1702778;82;21060;-71
2021/09/05 00:08:53;;;;;;;3.43;3.10;;;;;;;9.95;70.86;100735.81;1705895;83;21360;-71
2021/09/05 00:11:19;;;;;;;3.15;2.85;;;;;;;9.98;70.86;100734.63;1712039;80;21052;-71
2021/09/05 00:13:46;;;;;;;4.07;2.17;;;;;;;9.97;70.90;100730.31;1703632;83;21080;-71
2021/09/05 00:16:12;;;;;;;2.83;2.40;;;;;;;9.96;71.10;100738.78;1706962;83;21022;-71
2021/09/05 00:18:39;;;;;;;4.87;3.07;;;;;;;9.90;71.08;100735.50;1706090;82;21147;-72
2021/09/05 00:21:05;;;;;;;3.83;2.42;;;;;;;9.81;71.26;100744.02;1704997;83;21105;-72
2021/09/05 00:23:31;;;;;;;3.20;2.30;;;;;;;9.74;71.41;100740.41;1707380;81;21025;-71
2021/09/05 00:25:59;;;;;;;2.77;2.27;;;;;;;9.68;71.52;100754.39;1706529;82;21729;-72
2021/09/05 00:28:27;;;;;;;5.07;2.33;;;;;;;9.67;71.59;100750.08;1700227;82;20986;-70
2021/09/05 00:30:54;;;;;;;3.33;1.77;;;;;;;9.68;71.53;100752.58;1705787;83;21398;-72
2021/09/05 00:33:20;;;;;;;;;;;;;;;9.70;71.51;100751.91;1707295;82;21057;-72
2021/09/05 00:35:46;;;;;;;3.00;2.20;;;;;;;9.74;71.45;100752.39;1703271;82;20180;-71
2021/09/05 00:38:13;;;;;;;3.30;2.20;;;;;;;9.71;71.37;100758.05;1700094;83;21105;-72
2021/09/05 00:40:41;;;;;;;1.83;1.40;;;;;;;9.68;71.35;100760.56;1710745;83;21576;-71
2021/09/05 00:43:07;;;;;;;1.82;1.60;;;;;;;9.66;71.46;100755.06;1713259;83;21046;-72
2021/09/05 00:45:34;;;;;;;4.03;2.20;;;;;;;9.63;71.45;100763.41;1705629;81;21555;-71
2021/09/05 00:48:00;;;;;;;;;;;;;;;9.60;71.55;100759.75;1712422;83;21104;-71
2021/09/05 00:50:28;;;;;;;3.60;1.57;;;;;;;9.57;71.62;100764.08;1693876;83;20209;-71
2021/09/05 00:52:55;;;;;;;2.23;1.60;;;;;;;9.46;71.66;100767.44;1688914;83;21579;-72
2021/09/05 00:55:22;;;;;;;2.97;1.63;;;;;;;9.42;71.68;100763.95;1679675;82;21530;-72
2021/09/05 00:57:51;;;;;;;3.80;1.33;;;;;;;9.46;71.59;100770.61;1703658;83;21041;-71
2021/09/05 01:00:22;;;;;;;1.60;1.50;;;;;;;9.47;71.61;100774.92;1718362;82;21065;-72
2021/09/05 01:02:49;;;;;;;2.03;1.43;;;;;;;9.48;71.63;100772.59;1685442;83;21083;-72
2021/09/05 01:05:16;;;;;;;8.30;2.02;;;;;;;9.49;71.75;100771.58;1687940;83;21270;-72
2021/09/05 01:07:44;;;;;;;1.53;1.33;;;;;;;9.46;71.94;100780.75;1690276;83;21144;-71
2021/09/05 01:10:13;;;;;;;2.07;1.70;;;;;;;9.45;72.03;100774.27;1672978;84;21048;-71
2021/09/05 01:12:41;;;;;;;1.47;1.37;;;;;;;9.42;72.00;100775.92;1705543;82;21590;-71
2021/09/05 01:15:09;;;;;;;1.67;1.57;;;;;;;9.42;72.02;100777.25;1703829;82;21004;-71
2021/09/05 01:17:37;;;;;;;4.97;2.30;;;;;;;9.45;71.91;100774.27;1706041;83;21044;-72
2021/09/05 01:20:23;;;;;;;1.10;1.05;;;;;;;9.45;71.95;100773.75;1715520;82;21294;-72
2021/09/05 01:23:13;;;;;;;3.40;1.40;;;;;;;9.43;72.17;100783.73;1713971;79;21582;-70
2021/09/05 01:25:44;;;;;;;1.33;1.10;;;;;;;9.35;72.37;100785.09;1611616;87;21109;-71
2021/09/05 01:28:15;;;;;;;1.57;1.10;;;;;;;9.29;72.53;100786.60;1652486;84;21005;-72
2021/09/05 01:30:52;;;;;;;1.95;1.30;;;;;;;9.30;72.57;100790.09;1615650;87;21055;-73
2021/09/05 01:33:33;;;;;;;2.03;1.50;;;;;;;9.30;72.47;100784.77;1657101;81;21038;-74
2021/09/05 01:36:18;;;;;;;2.63;1.33;;;;;;;9.24;72.49;100782.79;1708579;83;21505;-71
2021/09/05 01:38:56;;;;;;;1.87;1.27;;;;;;;9.20;72.64;100786.78;1671231;85;21501;-71
2021/09/05 01:41:42;;;;;;;1.57;1.47;;;;;;;9.13;72.90;100797.25;1684007;83;21049;-72
2021/09/05 01:44:27;;;;;;;3.80;1.53;;;;;;;9.06;73.08;100790.46;1698679;81;20995;-72
2021/09/05 01:47:03;;;;;;;1.73;1.60;;;;;;;9.08;73.19;100792.92;1754527;79;21084;-73
2021/09/05 01:49:49;;;;;;;2.13;1.30;;;;;;;9.14;72.97;100794.94;1696933;83;21056;-72
2021/09/05 01:52:18;;;;;;;4.13;1.40;;;;;;;9.15;72.94;100797.44;1646899;85;21543;-71
2021/09/05 01:54:50;;;;;;;2.83;2.03;;;;;;;9.14;73.05;100800.26;1709604;80;21125;-72
2021/09/05 01:57:24;;;;;;;4.37;1.80;;;;;;;9.10;73.23;100799.77;1723966;82;21034;-72
2021/09/05 02:00:11;;;;;;;5.23;1.70;;;;;;;9.08;73.39;100805.75;1722610;82;21026;-72
2021/09/05 02:02:48;;;;;;;2.57;2.17;;;;;;;9.08;73.40;100802.23;1689368;83;21029;-72
2021/09/05 02:05:24;;;;;;;1.70;1.60;;;;;;;9.09;73.30;100809.23;1685077;83;21113;-72
2021/09/05 02:07:59;;;;;;;2.03;1.67;;;;;;;9.13;73.19;100808.71;1673014;83;21188;-71
2021/09/05 02:10:42;;;;;;;2.53;2.30;;;;;;;9.12;73.12;100806.25;1695097;83;21092;-73
2021/09/05 02:13:32;;;;;;;4.93;2.43;;;;;;;9.14;73.12;100809.56;1697855;83;21097;-72
2021/09/05 02:16:20;;;;;;;4.13;2.97;;;;;;;9.08;73.05;100811.54;1645274;83;21666;-72
2021/09/05 02:18:48;;;;;;;3.30;2.67;;;;;;;9.00;73.20;100820.35;1700757;83;21258;-73
2021/09/05 02:21:25;;;;;;;3.00;2.53;;;;;;;8.96;73.28;100819.03;1696448;83;21098;-73
2021/09/05 02:23:57;;;;;;;8.47;2.70;;;;;;;8.91;73.40;100821.34;1695233;83;21267;-73
2021/09/05 02:26:34;;;;;;;4.50;2.70;;;;;;;8.90;73.43;100818.38;1688819;83;21081;-71
2021/09/05 02:29:05;;;;;;;3.13;2.67;;;;;;;8.91;73.40;100827.98;1688856;83;21160;-72
2021/09/05 02:31:42;;;;;;;3.63;3.13;;;;;;;8.91;73.43;100825.33;1690981;83;21065;-69
2021/09/05 02:34:13;;;;;;;4.60;2.97;;;;;;;8.91;73.59;100822.67;1677717;83;21078;-69
2021/09/05 02:36:42;;;;;;;4.23;3.50;;;;;;;8.92;73.61;100825.68;1687959;83;21695;-68
2021/09/05 02:39:27;;;;;;;5.87;3.27;;;;;;;8.90;73.85;100822.36;1697287;83;21069;-68
2021/09/05 02:42:11;;;;;;;3.83;3.43;;;;;;;8.87;73.75;100825.34;1693172;83;21065;-69
2021/09/05 02:44:40;;;;;;;4.97;3.37;;;;;;;8.83;73.80;100832.80;1650738;84;21079;-69
2021/09/05 02:47:19;;;;;;;3.53;3.23;;;;;;;8.81;73.76;100838.79;1686978;84;21527;-69
2021/09/05 02:49:47;;;;;;;4.90;3.93;;;;;;;8.82;73.70;100839.14;1658158;84;22204;-70
2021/09/05 02:52:20;;;;;;;7.53;3.03;;;;;;;8.83;73.84;100842.61;1687847;83;21035;-69
2021/09/05 02:54:52;;;;;;;4.63;3.63;;;;;;;8.83;73.90;100842.61;1716636;83;21148;-69
2021/09/05 02:57:20;;;;;;;7.80;3.67;;;;;;;8.82;73.98;100836.98;1696765;82;21054;-69
2021/09/05 03:00:01;;;;;;;6.50;3.23;;;;;;;8.80;74.11;100840.27;1712865;82;21019;-69
2021/09/05 03:02:31;;;;;;;5.83;3.23;;;;;;;8.80;74.17;100844.27;1679876;82;21894;-70
2021/09/05 03:05:06;;;;;;;4.70;4.30;;;;;;;8.84;74.04;100846.95;1679830;82;21776;-68
2021/09/05 03:07:44;;;;;;;5.13;4.03;;;;;;;8.91;73.73;100855.43;1638714;84;21149;-70
2021/09/05 03:10:16;;;;;;;5.33;3.83;;;;;;;8.98;73.55;100848.94;1637953;83;21727;-70
2021/09/05 03:13:01;;;;;;;12.20;5.77;;;;;;;8.86;73.37;100825.02;1654258;83;21236;-69
2021/09/05 03:15:32;;;;;;;7.73;5.27;;;;;;;8.67;73.33;100798.27;1656449;83;22606;-69
2021/09/05 03:18:16;;;;;;;5.50;4.50;;;;;;;9.01;73.33;100853.11;1684806;84;21679;-69
2021/09/05 03:21:58;;;;;;;8.47;4.57;;;;;;;9.07;73.15;100849.28;1781083;78;22796;-69
2021/09/05 03:24:32;;;;;;;7.97;4.27;;;;;;;9.05;73.04;100851.27;1716691;82;21014;-69
2021/09/05 03:27:06;;;;;;;7.70;4.10;;;;;;;9.08;72.88;100856.27;1737371;82;21073;-68
2021/09/05 03:29:50;;;;;;;9.17;4.47;;;;;;;9.14;72.84;100859.59;1733496;80;21532;-69
2021/09/05 03:32:27;;;;;;;5.72;4.80;;;;;;;9.19;72.67;100862.25;1744141;80;21130;-69
2021/09/05 03:35:12;;;;;;;6.30;4.83;;;;;;;9.20;72.62;100874.05;1691486;83;21548;-69
2021/09/05 03:37:55;;;;;;;5.00;4.37;;;;;;;9.17;72.66;100869.05;1680564;83;21030;-68
2021/09/05 03:40:39;;;;;;;4.30;3.47;;;;;;;9.16;72.65;100872.22;1680236;83;21181;-68
2021/09/05 03:43:24;;;;;;;6.27;4.10;;;;;;;9.19;72.62;100879.02;1695871;83;21111;-69
2021/09/05 03:45:58;;;;;;;7.77;4.17;;;;;;;9.26;72.36;100875.22;1666137;85;20969;-70
2021/09/05 03:48:42;;;;;;;3.03;2.77;;;;;;;9.39;71.94;100880.86;1673100;85;20973;-70
2021/09/05 03:51:11;;;;;;;5.10;3.50;;;;;;;9.65;71.13;100886.00;1667821;85;20970;-70
2021/09/05 03:53:45;;;;;;;2.77;2.57;;;;;;;10.08;69.90;100888.41;1667442;85;21010;-70
2021/09/05 03:56:10;;;;;;;4.22;3.05;;;;;;;10.70;66.88;100893.81;1681621;84;21009;-70
2021/09/05 03:58:37;;;;;;;3.00;2.70;;;;;;;11.35;65.40;100886.85;1661205;85;20985;-69
2021/09/05 04:01:03;;;;;;;4.30;2.87;;;;;;;12.72;61.16;100890.53;1657519;84;21122;-69
2021/09/05 04:03:29;;;;;;;;;;;;;;;12.72;61.16;100890.53;1698458;84;21728;-69
2021/09/05 04:05:57;;;;;;;6.25;3.25;;;;;;;13.41;58.46;100888.14;1676512;84;20186;-69
2021/09/05 04:08:31;;;;;;;3.52;2.22;;;;;;;13.99;56.61;100889.77;1682879;84;21138;-69
2021/09/05 04:10:57;;;;;;;3.42;2.80;;;;;;;14.59;53.79;100889.55;1706881;84;20981;-68
2021/09/05 04:13:23;;;;;;;6.47;2.75;;;;;;;15.17;52.29;100889.59;1707445;83;21632;-69
2021/09/05 04:15:50;;;;;;;4.30;2.33;;;;;;;15.68;50.54;100890.30;1722936;83;21013;-69
2021/09/05 04:18:22;;;;;;;3.42;2.47;;;;;;;16.29;49.76;100887.83;1723106;83;21558;-70
2021/09/05 04:20:50;;;;;;;4.45;2.05;;;;;;;16.95;48.26;100893.11;1714781;83;21161;-69
2021/09/05 04:23:16;;;;;;;3.08;2.30;;;;;;;17.54;46.03;100899.92;1685519;84;21373;-69
2021/09/05 04:25:43;;;;;;;3.20;2.05;;;;;;;17.95;44.67;100891.80;1698138;84;21373;-69
2021/09/05 04:28:09;;;;;;;2.20;2.00;;;;;;;18.36;43.15;100899.72;1687815;84;21061;-69
2021/09/05 04:30:35;;;;;;;;;;;;;;;18.76;41.51;100899.73;1704463;84;21651;-71
2021/09/05 04:33:02;;;;;;;2.00;1.80;;;;;;;19.14;41.11;100895.91;1708046;84;20165;-70
2021/09/05 04:35:28;;;;;;;3.00;1.60;;;;;;;19.49;40.12;100903.23;1675141;84;20982;-70
2021/09/05 04:37:56;;;;;;;4.72;1.95;;;;;;;19.83;39.21;100903.81;1694272;82;21406;-69
2021/09/05 04:40:22;;;;;;;;;;;;;;;20.01;38.42;100905.55;1703875;82;21078;-70
2021/09/05 04:42:48;;;;;;;3.20;2.17;;;;;;;20.08;37.81;100900.53;1690801;84;20602;-69
2021/09/05 04:45:14;;;;;;;4.33;2.12;;;;;;;19.94;37.55;100900.78;1696826;82;20989;-70
2021/09/05 04:47:41;;;;;;;2.92;2.72;;;;;;;19.70;38.28;100912.11;1696661;84;21865;-70
2021/09/05 04:50:09;;;;;;;2.83;2.00;;;;;;;19.49;38.35;100905.40;1693317;82;21067;-70
2021/09/05 04:52:35;;;;;;;2.85;2.00;;;;;;;19.32;38.82;100913.91;1712975;82;20983;-70
2021/09/05 04:55:02;;;;;;;;;;;;;;;19.17;39.02;100916.50;1699980;82;21042;-71
2021/09/05 04:57:28;;;;;;;4.43;2.80;;;;;;;19.12;39.03;100913.70;1691038;84;20139;-70
2021/09/05 04:59:54;;;;;;;2.80;2.33;;;;;;;19.04;39.40;100917.55;1698957;84;21056;-69
2021/09/05 05:02:20;;;;;;;;;;;;;;;19.08;39.70;100917.92;1691520;84;22232;-70
2021/09/05 05:04:46;;;;;;;3.58;2.47;;;;;;;19.27;39.24;100921.37;1693613;84;20501;-71
2021/09/05 05:07:14;;;;;;;2.42;2.08;;;;;;;19.22;39.24;100919.88;1684776;82;21156;-70
2021/09/05 05:09:45;;;;;;;1.90;1.80;;;;;;;19.17;39.20;100919.20;1690701;82;21041;-70
2021/09/05 05:12:14;;;;;;;3.92;1.82;;;;;;;19.30;38.94;100916.02;1696455;82;21047;-70
2021/09/05 05:14:40;;;;;;;2.42;2.30;;;;;;;19.47;38.94;100921.03;1688920;84;21013;-70
2021/09/05 05:17:06;;;;;;;2.62;2.42;;;;;;;19.79;38.15;100920.20;1690756;84;21021;-70
2021/09/05 05:19:33;;;;;;;14.15;5.10;;;;;;;19.96;38.08;100920.84;1694181;84;21757;-68
2021/09/05 05:21:59;;;;;;;2.60;2.40;;;;;;;20.12;38.00;100916.61;1693387;84;21109;-69
2021/09/05 05:24:28;;;;;;;2.30;1.92;;;;;;;20.35;37.25;100919.25;1698308;84;21633;-69
2021/09/05 05:26:54;;;;;;;2.58;1.45;;;;;;;20.45;36.83;100913.76;1693529;84;21085;-69
2021/09/05 05:29:20;;;;;;;2.92;2.12;;;;;;;20.23;37.25;100923.35;1685093;84;21062;-68
2021/09/05 05:31:47;;;;;;;2.83;2.52;;;;;;;20.08;37.61;100921.67;1697114;84;21159;-69
2021/09/05 05:34:13;;;;;;;1.60;1.27;;;;;;;20.02;37.74;100919.89;1710570;84;21102;-69
2021/09/05 05:36:39;;;;;;;3.10;2.02;;;;;;;20.09;38.63;100922.48;1712382;84;21097;-70
2021/09/05 05:39:05;;;;;;;2.35;2.15;;;;;;;20.17;37.70;100918.89;1713970;83;21045;-69
2021/09/05 05:41:31;;;;;;;1.90;1.80;;;;;;;20.26;37.46;100923.39;1714229;84;20970;-71
2021/09/05 05:43:57;;;;;;;1.92;1.82;;;;;;;20.35;37.48;100923.86;1714021;83;21505;-72
2021/09/05 05:46:23;;;;;;;2.70;2.50;;;;;;;20.36;37.01;100920.91;1668776;83;20983;-71
2021/09/05 05:48:52;;;;;;;2.65;2.42;;;;;;;20.20;37.53;100921.11;1666297;86;21061;-72
2021/09/05 05:51:18;;;;;;;2.60;2.40;;;;;;;19.96;37.86;100921.66;1664680;86;21573;-71
2021/09/05 05:53:45;;;;;;;2.33;1.77;;;;;;;20.02;38.32;100936.13;1665359;86;21673;-70
2021/09/05 05:56:12;;;;;;;2.85;1.60;;;;;;;20.22;38.27;100928.45;1665624;86;21073;-71
2021/09/05 05:58:38;;;;;;;3.62;1.45;;;;;;;20.42;37.74;100932.13;1665857;86;21074;-69
2021/09/05 06:01:06;;;;;;;1.10;0.50;;;;;;;20.51;36.90;100937.16;1686351;84;21080;-70
2021/09/05 06:03:37;;;;;;;1.12;0.95;;;;;;;20.51;36.12;100935.81;1714948;84;21081;-64
2021/09/05 06:06:03;;;;;;;2.30;2.02;;;;;;;20.44;36.29;100937.31;1714464;84;21085;-64
2021/09/05 06:08:29;;;;;;;1.90;0.70;;;;;;;20.41;36.65;100937.24;1715014;84;21026;-77
2021/09/05 06:10:57;;;;;;;0.60;0.20;;;;;;;20.55;36.00;100942.38;1714427;84;21288;-63
2021/09/05 06:13:23;;;;;;;;;;;;;;;20.74;34.94;100941.20;1718352;82;21025;-63
2021/09/05 06:15:49;;;;;;;0.65;0.30;;;;;;;20.83;34.43;100945.67;1715031;84;20222;-65
2021/09/05 06:18:15;;;;;;;1.05;0.50;;;;;;;20.71;35.06;100943.02;1715852;83;21531;-63
2021/09/05 06:20:41;;;;;;;;;;;;;;;20.66;35.15;100948.33;1712951;83;21034;-64
2021/09/05 06:23:07;;;;;;;0.70;0.70;;;;;;;20.51;35.46;100949.35;1695893;84;20479;-65
2021/09/05 06:25:33;;;;;;;0.70;0.70;;;;;;;20.22;35.44;100956.06;1714079;84;21031;-65
2021/09/05 06:27:59;;;;;;;0.55;0.55;;;;;;;19.94;36.31;100956.79;1708866;84;21047;-65
2021/09/05 06:30:26;;;;;;;0.57;0.30;;;;;;;19.87;37.51;100958.78;1696747;84;21099;-64
2021/09/05 06:32:52;;;;;;;1.37;0.20;;;;;;;20.03;36.72;100956.19;1700289;84;21111;-66
2021/09/05 06:35:21;;;;;;;;;;;;;;;19.97;36.42;100959.84;1696356;84;21587;-64
2021/09/05 06:37:49;;;;;;;3.12;0.20;;;;;;;19.93;36.44;100961.38;1699866;84;20167;-63
2021/09/05 06:40:15;;;;;;;0.50;0.20;;;;;;;19.77;36.71;100959.37;1691494;84;21156;-65
2021/09/05 06:42:43;;;;;;;1.30;0.28;;;;;;;19.74;36.49;100964.73;1685878;84;21561;-64
2021/09/05 06:45:13;;;;;;;0.60;0.30;;;;;;;19.56;37.22;100960.20;1694773;83;21060;-65
2021/09/05 06:47:40;;;;;;;0.78;0.50;;;;;;;19.42;36.89;100965.50;1696378;84;21077;-64
2021/09/05 06:50:11;;;;;;;2.27;0.55;;;;;;;19.28;37.62;100963.54;1704573;84;21607;-66
2021/09/05 06:52:38;;;;;;;3.22;0.60;;;;;;;19.05;37.64;100965.11;1691363;84;21227;-65
2021/09/05 06:55:05;;;;;;;2.25;0.35;;;;;;;18.84;38.49;100961.58;1702272;84;22283;-64
2021/09/05 06:57:31;;;;;;;1.75;0.70;;;;;;;18.56;38.90;100962.10;1689438;84;21029;-64
2021/09/05 06:59:57;;;;;;;0.85;0.20;;;;;;;18.13;39.68;100969.73;1693883;84;21077;-64
2021/09/05 07:02:25;;;;;;;1.90;0.35;;;;;;;17.81;40.48;100977.34;1704530;84;21500;-64
2021/09/05 07:04:52;;;;;;;0.88;0.40;;;;;;;17.55;40.66;100979.72;1694664;84;20982;-64
2021/09/05 07:07:17;;;;;;;0.70;0.33;;;;;;;17.34;41.40;100982.80;1688605;84;21140;-65
2021/09/05 07:09:43;;;;;;;1.02;0.45;;;;;;;17.19;41.52;100980.39;1703086;84;21113;-66
2021/09/05 07:12:09;;;;;;;0.65;0.35;;;;;;;16.93;41.69;100981.68;1699930;84;20995;-65
2021/09/05 07:14:35;;;;;;;1.10;0.37;;;;;;;16.50;42.21;100982.23;1700150;84;21032;-65
2021/09/05 07:17:04;;;;;;;1.35;0.30;;;;;;;16.50;42.21;100982.23;1699319;84;21129;-66
2021/09/05 07:19:30;;;;;;;0.50;0.50;;;;;;;16.39;43.10;100991.45;1707146;84;21147;-67
2021/09/05 07:21:56;;;;;;;0.70;0.40;;;;;;;16.26;43.20;100989.64;1685675;84;21053;-66
2021/09/05 07:24:23;;;;;;;;;;;;;;;16.10;43.38;100989.02;1690288;84;20981;-64
2021/09/05 07:26:49;;;;;;;0.75;0.30;;;;;;;16.04;42.95;100989.86;1695301;84;20111;-65
2021/09/05 07:29:17;;;;;;;1.10;0.20;;;;;;;15.94;42.88;100996.19;1699988;84;20978;-65
2021/09/05 07:31:45;;;;;;;1.17;0.30;;;;;;;15.87;43.21;100990.80;1685581;84;21231;-66
2021/09/05 07:34:12;;;;;;;0.80;0.47;;;;;;;15.87;43.21;100990.80;1711654;84;21029;-66
2021/09/05 07:36:38;;;;;;;0.68;0.30;;;;;;;15.87;43.19;100995.36;1682958;85;21223;-65
2021/09/05 07:39:10;;;;;;;0.60;0.40;;;;;;;15.86;42.93;101002.61;1690415;84;21089;-65
2021/09/05 07:41:36;;;;;;;0.60;0.20;;;;;;;15.88;42.79;100997.00;1690752;84;21112;-65
2021/09/05 07:44:04;;;;;;;2.67;0.28;;;;;;;15.91;41.73;101004.66;1705869;82;20985;-64
2021/09/05 07:46:30;;;;;;;0.42;0.20;;;;;;;15.87;41.98;100996.70;1702515;84;21018;-66
2021/09/05 07:48:57;;;;;;;0.50;0.20;;;;;;;15.83;42.31;101004.88;1698234;84;21045;-67
2021/09/05 07:51:26;;;;;;;0.45;0.30;;;;;;;15.83;42.21;101003.53;1701063;83;21017;-65
2021/09/05 07:53:54;;;;;;;0.20;0.10;;;;;;;15.86;41.95;101005.30;1700989;84;21671;-65
2021/09/05 07:56:24;;;;;;;0.50;0.10;;;;;;;15.94;41.58;101001.04;1681951;83;21044;-67
2021/09/05 07:58:50;;;;;;;0.17;0.10;;;;;;;16.05;39.28;101004.97;1669142;85;21088;-66
2021/09/05 08:01:16;;;;;;;0.20;0.00;;;;;;;16.12;38.51;100999.08;1666691;84;21080;-65
2021/09/05 08:03:43;;;;;;;0.55;0.10;;;;;;;16.18;37.85;100992.53;1667665;85;21571;-65
2021/09/05 08:06:10;;;;;;;0.20;0.10;;;;;;;16.23;37.20;101000.80;1658799;85;21043;-67
2021/09/05 08:08:37;;;;;;;0.30;0.10;;;;;;;16.28;37.02;100999.14;1657918;86;21037;-71
2021/09/05 08:11:04;;;;;;;0.30;0.10;;;;;;;16.33;37.53;101000.69;1671403;85;21067;-70
2021/09/05 08:13:32;;;;;;;0.10;0.10;;;;;;;16.39;36.21;100993.64;1663662;86;21064;-72
2021/09/05 08:16:00;;;;;;;1.75;0.08;;;;;;;16.37;36.24;100998.91;1647356;86;21721;-71
2021/09/05 08:18:36;;;;;;;0.40;0.40;;;;;;;16.24;36.32;100979.08;1670258;86;21151;-71
2021/09/05 08:21:08;;;;;;;0.42;0.10;;;;;;;16.36;36.77;100992.70;1670506;85;21445;-70
2021/09/05 08:23:37;;;;;;;0.20;0.10;;;;;;;16.39;36.63;100996.33;1664927;85;21083;-71
2021/09/05 08:26:05;;;;;;;0.28;0.15;;;;;;;16.33;36.67;101004.73;1667833;86;21511;-72
2021/09/05 08:28:33;;;;;;;0.33;0.20;;;;;;;16.33;36.67;101004.73;1658782;85;21357;-71
2021/09/05 08:30:59;;;;;;;1.07;0.10;;;;;;;16.22;37.37;101008.06;1665446;86;21107;-70
2021/09/05 08:33:25;;;;;;;;;;;;;;;16.19;36.75;100998.23;1663579;85;21045;-71
2021/09/05 08:35:51;;;;;;;0.00;0.00;;;;;;;16.22;36.19;101005.86;1661678;86;20432;-71
2021/09/05 08:38:17;;;;;;;0.10;0.10;;;;;;;16.14;36.42;101008.25;1659284;86;21088;-71
2021/09/05 08:40:47;;;;;;;0.53;0.10;;;;;;;16.26;37.03;101020.57;1662906;86;21131;-70
2021/09/05 08:43:16;;;;;;;0.42;0.10;;;;;;;16.29;36.55;101016.95;1661521;85;21128;-71
2021/09/05 08:45:45;;;;;;;0.62;0.10;;;;;;;16.33;36.13;101014.64;1654312;85;21055;-71
2021/09/05 08:48:15;;;;;;;0.50;0.10;;;;;;;16.35;35.98;101012.59;1661619;85;21090;-71
2021/09/05 08:50:43;;;;;;;0.62;0.28;;;;;;;16.35;36.33;101012.59;1667622;85;21073;-70
2021/09/05 08:53:11;;;;;;;2.67;0.10;;;;;;;16.47;36.28;101009.55;1654972;85;21052;-73
2021/09/05 08:55:38;;;;;;;0.60;0.10;;;;;;;16.50;36.60;101009.14;1648502;86;22143;-73
2021/09/05 08:58:04;;;;;;;0.40;0.37;;;;;;;16.50;36.60;101009.14;1664244;84;21064;-73
2021/09/05 09:00:34;;;;;;;0.20;0.10;;;;;;;16.49;36.58;101020.92;1651021;85;21168;-73
2021/09/05 09:03:01;;;;;;;0.13;0.10;;;;;;;16.46;35.75;101011.09;1645278;86;20977;-74
2021/09/05 09:05:37;;;;;;;0.10;0.10;;;;;;;16.48;36.12;101012.56;1640078;86;21118;-73
2021/09/05 09:08:12;;;;;;;0.30;0.10;;;;;;;16.59;35.77;101002.98;1661335;86;21093;-73
2021/09/05 09:10:57;;;;;;;1.17;0.10;;;;;;;16.66;35.73;101012.40;1660599;85;21041;-75
2021/09/05 09:13:32;;;;;;;0.30;0.10;;;;;;;16.74;36.11;101009.46;1645590;86;21115;-72
2021/09/05 09:16:05;;;;;;;3.35;0.10;;;;;;;16.84;36.21;101015.77;1652143;85;21618;-73
2021/09/05 09:18:33;;;;;;;0.23;0.13;;;;;;;16.86;35.02;101013.19;1652961;85;21108;-73
2021/09/05 09:21:03;;;;;;;0.03;0.00;;;;;;;16.80;34.55;101008.63;1652081;85;21614;-74
2021/09/05 09:23:35;;;;;;;0.30;0.20;;;;;;;16.77;35.42;101006.88;1652734;84;21609;-72
2021/09/05 09:26:14;;;;;;;2.12;0.10;;;;;;;16.70;35.32;101004.20;1658016;86;21040;-73
2021/09/05 09:28:47;;;;;;;0.47;0.10;;;;;;;16.70;35.32;101004.20;1661354;86;21028;-71
2021/09/05 09:31:18;;;;;;;0.20;0.10;;;;;;;16.69;35.36;101010.64;1662845;86;21175;-74
2021/09/05 09:33:49;;;;;;;0.28;0.10;;;;;;;16.71;34.95;100999.14;1651111;86;21633;-73
2021/09/05 09:36:20;;;;;;;0.20;0.10;;;;;;;16.80;34.98;101006.44;1666461;86;21145;-74
2021/09/05 09:39:10;;;;;;;0.62;0.10;;;;;;;16.82;35.08;100999.85;1646800;86;21176;-75
2021/09/05 09:41:39;;;;;;;0.53;0.10;;;;;;;16.87;34.93;100993.81;1604806;87;21059;-75
2021/09/05 09:44:12;;;;;;;0.13;0.13;;;;;;;16.95;35.55;100990.05;1648136;86;21126;-75
2021/09/05 09:46:50;;;;;;;0.20;0.20;;;;;;;16.95;35.55;100990.05;1651126;86;20997;-75
2021/09/05 09:49:18;;;;;;;0.50;0.20;;;;;;;17.03;34.85;100997.90;1652111;86;21699;-73
2021/09/05 09:51:44;;;;;;;0.78;0.30;;;;;;;17.05;34.84;100999.33;1644825;86;21116;-74
2021/09/05 09:54:11;;;;;;;1.05;0.10;;;;;;;17.00;34.97;100999.66;1648960;86;21015;-73
2021/09/05 09:56:37;;;;;;;;;;;;;;;16.92;35.83;100994.82;1646703;83;21103;-73
2021/09/05 09:59:07;;;;;;;0.40;0.10;;;;;;;16.85;36.22;101003.44;1651650;86;20162;-73
2021/09/05 10:01:34;;;;;;;0.42;0.08;;;;;;;16.81;36.09;101006.23;1641437;84;21620;-71
2021/09/05 10:04:03;;;;;;;0.47;0.10;;;;;;;16.81;36.09;101006.23;1624548;88;22196;-70
2021/09/05 10:06:32;;;;;;;2.70;0.20;;;;;;;16.87;35.13;101007.27;1619521;88;21540;-73
2021/09/05 10:09:06;;;;;;;0.95;0.20;;;;;;;16.96;35.82;101008.69;1625690;88;21066;-71
2021/09/05 10:11:36;;;;;;;0.20;0.10;;;;;;;17.11;35.07;101009.76;1636579;85;20983;-73
2021/09/05 10:14:03;;;;;;;0.98;0.10;;;;;;;17.22;36.13;101024.42;1667238;85;20988;-72
2021/09/05 10:16:31;;;;;;;0.85;0.30;;;;;;;17.19;36.50;101024.31;1662666;85;21066;-72
2021/09/05 10:19:05;;;;;;;1.40;0.10;;;;;;;17.05;36.64;101035.68;1670919;85;21096;-72
2021/09/05 10:21:34;;;;;;;0.30;0.10;;;;;;;16.78;37.13;101032.22;1668039;85;21098;-72
2021/09/05 10:24:01;;;;;;;0.20;0.10;;;;;;;16.54;37.57;101029.20;1656404;85;21232;-72
2021/09/05 10:26:29;;;;;;;0.23;0.10;;;;;;;16.32;38.41;101031.30;1656061;86;21101;-73
2021/09/05 10:29:01;;;;;;;1.02;0.20;;;;;;;16.02;44.01;101040.86;1657679;86;21564;-74
2021/09/05 10:31:39;;;;;;;1.70;0.25;;;;;;;15.85;47.87;101056.05;1646055;86;21204;-73
2021/09/05 10:34:14;;;;;;;3.77;0.20;;;;;;;15.85;47.87;101056.05;1655938;85;21579;-73
2021/09/05 10:36:43;;;;;;;1.50;0.17;;;;;;;15.33;47.50;101055.73;1652475;86;21368;-79
2021/09/05 10:39:10;;;;;;;0.72;0.20;;;;;;;14.97;49.75;101053.30;1646916;86;21062;-71
2021/09/05 10:41:50;;;;;;;0.70;0.62;;;;;;;14.65;50.84;101058.30;1658803;86;21109;-69
2021/09/05 10:44:18;;;;;;;2.55;0.30;;;;;;;14.45;53.38;101065.35;1656503;85;21166;-71
2021/09/05 10:46:49;;;;;;;0.60;0.40;;;;;;;14.31;54.27;101067.95;1650770;86;21114;-71
2021/09/05 10:49:17;;;;;;;0.47;0.20;;;;;;;14.27;54.67;101065.86;1655445;86;21058;-72
2021/09/05 10:51:51;;;;;;;1.80;0.20;;;;;;;14.27;54.00;101065.86;1653121;86;21090;-70
2021/09/05 10:54:28;;;;;;;1.27;0.33;;;;;;;14.26;55.56;101065.53;1652142;86;21121;-72
2021/09/05 10:56:59;;;;;;;1.95;0.25;;;;;;;14.26;53.41;101061.02;1661411;85;21087;-71
2021/09/05 10:59:35;;;;;;;0.47;0.17;;;;;;;14.36;54.16;101053.45;1661603;85;21120;-71
2021/09/05 11:02:04;;;;;;;0.25;0.20;;;;;;;14.49;55.99;101052.71;1694404;84;21594;-71
2021/09/05 11:04:43;;;;;;;0.10;0.10;;;;;;;14.63;50.51;101058.19;1691888;84;21040;-70
2021/09/05 11:07:29;;;;;;;0.40;0.20;;;;;;;14.77;50.49;101051.88;1701513;84;21092;-70
2021/09/05 11:09:56;;;;;;;0.20;0.10;;;;;;;14.92;49.22;101053.91;1701278;84;20972;-71
2021/09/05 11:12:40;;;;;;;3.80;0.20;;;;;;;15.04;48.17;101043.42;1687293;84;21040;-71
2021/09/05 11:15:12;;;;;;;0.65;0.45;;;;;;;15.10;48.44;101042.61;1697951;84;21024;-70
2021/09/05 11:17:41;;;;;;;0.93;0.23;;;;;;;15.15;49.06;101043.37;1696072;84;21167;-71
2021/09/05 11:20:14;;;;;;;0.50;0.10;;;;;;;15.09;48.94;101038.81;1696766;84;21664;-71
2021/09/05 11:22:48;;;;;;;0.68;0.20;;;;;;;15.15;49.54;101066.19;1680779;84;21344;-71
2021/09/05 11:25:23;;;;;;;1.02;0.10;;;;;;;15.14;50.66;101070.74;1684428;84;21566;-71
2021/09/05 11:28:04;;;;;;;0.62;0.15;;;;;;;15.01;50.72;101077.37;1695392;84;21359;-72
2021/09/05 11:30:37;;;;;;;0.53;0.20;;;;;;;14.78;51.17;101087.06;1695183;84;21119;-71
2021/09/05 11:33:08;;;;;;;1.37;0.47;;;;;;;14.45;53.75;101089.49;1703107;84;21112;-70
2021/09/05 11:35:45;;;;;;;0.33;0.20;;;;;;;14.12;54.53;101104.30;1684402;84;21036;-72
2021/09/05 11:38:16;;;;;;;0.98;0.30;;;;;;;13.80;56.82;101104.31;1699649;84;21227;-72
2021/09/05 11:40:51;;;;;;;0.85;0.20;;;;;;;13.50;55.70;101103.58;1696031;84;22168;-71
2021/09/05 11:43:39;;;;;;;0.62;0.20;;;;;;;13.29;56.79;101086.94;1692152;84;21036;-71
2021/09/05 11:46:17;;;;;;;0.78;0.30;;;;;;;13.18;57.63;101084.22;1692492;82;20973;-71
2021/09/05 11:48:59;;;;;;;0.75;0.25;;;;;;;13.17;57.84;101086.59;1691449;84;21032;-71